Time;durP1;ratioP1;P1;durP2;ratioP2;P2;SDS_P1;SDS_P2;PMS_P1;PMS_P2;Temp;Humidity;BMP_temperature;BMP_pressure;BME280_temperature;BME280_humidity;BME280_pressure;Samples;Min_cycle;Max_cycle;Signal;HPM_P1;HPM_P2
2023/09/26 00:00:09;;;;;;;16.50;11.60;;;;;;;18.24;81.75;101764.67;108297;1254;61779;-69
2023/09/26 00:02:36;;;;;;;15.70;11.80;;;;;;;18.23;81.68;101766.21;108171;1253;60319;-67
2023/09/26 00:05:03;;;;;;;15.30;11.80;;;;;;;18.21;81.67;101768.32;108263;1253;73771;-68
2023/09/26 00:07:30;;;;;;;13.80;11.50;;;;;;;18.19;81.79;101766.98;108195;1253;73624;-68
2023/09/26 00:09:58;;;;;;;15.90;11.60;;;;;;;18.18;81.65;101757.52;108232;1254;72629;-67
2023/09/26 00:12:24;;;;;;;17.70;11.40;;;;;;;18.11;81.93;101759.89;108281;1251;61786;-68
2023/09/26 00:14:51;;;;;;;14.90;11.40;;;;;;;18.08;81.90;101760.49;108244;1252;60455;-68
2023/09/26 00:17:18;;;;;;;13.60;11.20;;;;;;;18.04;82.08;101758.98;108222;1253;72359;-68
2023/09/26 00:19:45;;;;;;;12.60;10.70;;;;;;;18.00;82.16;101759.28;108255;1254;71661;-69
2023/09/26 00:22:12;;;;;;;15.30;11.90;;;;;;;17.97;82.26;101761.73;108277;1252;72695;-67
2023/09/26 00:24:39;;;;;;;15.50;11.10;;;;;;;17.93;82.41;101763.96;108273;1254;61721;-67
2023/09/26 00:27:07;;;;;;;14.10;11.70;;;;;;;17.94;82.51;101764.50;108203;1253;60412;-68
2023/09/26 00:29:34;;;;;;;15.70;11.30;;;;;;;17.97;82.31;101764.49;108232;1253;74153;-67
2023/09/26 00:32:01;;;;;;;18.40;12.50;;;;;;;17.88;82.51;101764.85;108246;1253;72765;-68
2023/09/26 00:34:28;;;;;;;15.00;12.00;;;;;;;17.81;82.78;101767.74;108263;1253;72774;-68
2023/09/26 00:36:55;;;;;;;14.50;12.10;;;;;;;17.79;83.04;101765.84;108176;1253;63252;-68
2023/09/26 00:39:22;;;;;;;13.60;11.90;;;;;;;17.77;83.05;101760.08;108314;1252;60359;-67
2023/09/26 00:41:49;;;;;;;13.00;11.50;;;;;;;17.75;83.24;101763.67;108120;1253;72540;-68
2023/09/26 00:44:16;;;;;;;14.20;11.30;;;;;;;17.73;83.39;101762.16;108324;1253;72729;-67
2023/09/26 00:46:44;;;;;;;14.60;11.90;;;;;;;17.75;83.35;101761.36;108285;1253;72682;-67
2023/09/26 00:49:11;;;;;;;15.90;11.90;;;;;;;17.80;83.19;101764.59;108267;1253;61789;-67
2023/09/26 00:51:38;;;;;;;13.90;11.40;;;;;;;17.81;83.07;101768.28;108238;1252;60392;-67
2023/09/26 00:54:05;;;;;;;14.30;12.20;;;;;;;17.79;83.21;101768.77;108358;1252;73880;-66
2023/09/26 00:56:32;;;;;;;18.30;11.70;;;;;;;17.76;83.23;101769.64;108240;1254;72954;-67
2023/09/26 00:59:00;;;;;;;13.40;11.50;;;;;;;17.74;83.36;101775.67;108208;1254;70703;-67
2023/09/26 01:01:27;;;;;;;13.60;11.70;;;;;;;17.71;83.30;101778.06;108247;1254;60727;-68
2023/09/26 01:03:54;;;;;;;14.10;11.60;;;;;;;17.69;83.53;101780.98;108180;1253;60335;-67
2023/09/26 01:06:21;;;;;;;12.90;11.00;;;;;;;17.66;83.59;101780.98;108245;1253;73885;-67
2023/09/26 01:08:48;;;;;;;15.50;11.60;;;;;;;17.63;83.62;101779.21;108251;1252;72602;-67
2023/09/26 01:11:15;;;;;;;13.80;11.20;;;;;;;17.61;83.79;101782.80;108265;1253;70175;-68
2023/09/26 01:13:41;;;;;;;15.40;12.10;;;;;;;17.59;83.83;101781.59;108183;1252;61728;-68
2023/09/26 01:16:15;;;;;;;15.70;12.80;;;;;;;17.58;83.88;101783.83;108080;1252;60428;-68
2023/09/26 01:18:43;;;;;;;16.80;11.70;;;;;;;17.57;83.97;101779.08;108156;1253;72309;-67
2023/09/26 01:21:10;;;;;;;17.00;11.70;;;;;;;17.57;83.89;101781.65;108257;1254;72612;-67
2023/09/26 01:23:37;;;;;;;16.50;12.70;;;;;;;17.55;83.98;101779.20;108333;1253;72542;-67
2023/09/26 01:26:04;;;;;;;13.70;11.20;;;;;;;17.52;83.91;101775.61;108152;1254;60752;-68
2023/09/26 01:28:31;;;;;;;14.80;12.00;;;;;;;17.52;84.01;101772.49;108378;1253;60444;-68
2023/09/26 01:30:58;;;;;;;15.40;11.90;;;;;;;17.50;83.89;101770.11;108186;1254;72910;-68
2023/09/26 01:33:25;;;;;;;15.30;12.10;;;;;;;17.48;83.83;101770.89;108266;1254;71525;-68
2023/09/26 01:35:52;;;;;;;16.60;12.90;;;;;;;17.45;83.93;101773.11;108278;1256;72455;-68
2023/09/26 01:38:19;;;;;;;14.80;12.00;;;;;;;17.40;84.10;101773.54;108227;1254;61764;-68
2023/09/26 01:40:46;;;;;;;19.60;13.50;;;;;;;17.36;84.24;101779.38;108264;1253;60626;-66
2023/09/26 01:43:13;;;;;;;14.50;12.40;;;;;;;17.34;84.48;101783.96;108258;1252;73698;-67
2023/09/26 01:45:43;;;;;;;16.80;12.30;;;;;;;17.32;84.70;101786.58;108268;1252;72583;-65
2023/09/26 01:48:12;;;;;;;15.10;12.80;;;;;;;17.35;84.68;101784.73;108201;1252;71859;-67
2023/09/26 01:50:39;;;;;;;16.90;13.40;;;;;;;17.39;84.83;101783.11;108372;1254;61937;-67
2023/09/26 01:53:08;;;;;;;18.10;13.20;;;;;;;17.34;85.04;101784.04;108333;1252;60326;-68
2023/09/26 01:55:38;;;;;;;14.60;12.40;;;;;;;17.35;85.25;101786.46;108283;1253;75003;-67
2023/09/26 01:58:04;;;;;;;16.20;14.20;;;;;;;17.37;85.54;101789.96;108253;1254;71394;-67
2023/09/26 02:00:32;;;;;;;15.00;12.80;;;;;;;17.39;85.55;101788.73;108144;1253;72730;-67
2023/09/26 02:02:58;;;;;;;19.50;12.60;;;;;;;17.42;85.62;101796.83;108157;1252;62247;-67
2023/09/26 02:05:25;;;;;;;15.60;12.80;;;;;;;17.50;85.56;101798.60;108257;1254;60941;-68
2023/09/26 02:07:52;;;;;;;14.30;12.80;;;;;;;17.51;85.42;101801.02;108174;1253;73881;-68
2023/09/26 02:10:19;;;;;;;16.50;13.60;;;;;;;17.51;85.38;101807.52;108297;1253;72896;-67
2023/09/26 02:12:50;;;;;;;14.90;13.40;;;;;;;17.52;85.48;101811.27;108194;1254;72725;-68
2023/09/26 02:15:17;;;;;;;17.10;12.70;;;;;;;17.55;85.50;101807.22;108214;1254;60941;-68
2023/09/26 02:17:43;;;;;;;16.60;13.50;;;;;;;17.57;85.45;101813.21;108264;1253;60313;-68
2023/09/26 02:20:14;;;;;;;15.20;13.20;;;;;;;17.57;85.53;101808.67;108285;1253;73789;-67
2023/09/26 02:22:42;;;;;;;16.30;13.30;;;;;;;17.55;85.42;101810.73;108245;1252;72526;-67
2023/09/26 02:25:10;;;;;;;17.40;12.60;;;;;;;17.55;85.64;101806.03;108157;1253;70216;-68
2023/09/26 02:27:44;;;;;;;16.70;12.60;;;;;;;17.57;85.49;101807.98;108345;1254;61059;-68
2023/09/26 02:30:18;;;;;;;19.10;14.00;;;;;;;17.58;85.52;101803.39;108298;1254;60322;-68
2023/09/26 02:32:45;;;;;;;14.20;12.60;;;;;;;17.59;85.57;101804.46;108270;1254;72582;-67
2023/09/26 02:35:13;;;;;;;17.30;12.50;;;;;;;17.58;85.68;101807.39;108096;1253;72641;-68
2023/09/26 02:37:40;;;;;;;14.60;13.10;;;;;;;17.59;85.72;101811.23;108187;1252;72703;-67
2023/09/26 02:40:09;;;;;;;14.80;12.60;;;;;;;17.58;86.05;101811.02;108169;1253;60549;-68
2023/09/26 02:42:37;;;;;;;17.20;12.80;;;;;;;17.62;85.95;101814.73;108156;1253;60498;-67
2023/09/26 02:45:05;;;;;;;18.20;13.50;;;;;;;17.67;85.79;101817.96;108295;1254;73933;-67
2023/09/26 02:47:32;;;;;;;15.20;12.90;;;;;;;17.67;85.62;101823.26;108485;1254;73926;-68
2023/09/26 02:50:00;;;;;;;13.70;12.30;;;;;;;17.68;85.45;101820.11;108155;1254;71664;-68
2023/09/26 02:52:27;;;;;;;16.30;12.20;;;;;;;17.69;85.49;101825.84;108249;1253;61831;-68
2023/09/26 02:54:53;;;;;;;16.00;12.60;;;;;;;17.70;85.53;101828.97;108220;1253;60106;-66
2023/09/26 02:57:24;;;;;;;16.00;12.50;;;;;;;17.70;85.58;101831.02;108150;1253;73841;-70
2023/09/26 02:59:53;;;;;;;14.30;12.10;;;;;;;17.70;85.62;101831.95;108208;1254;71303;-67
2023/09/26 03:02:19;;;;;;;14.20;11.80;;;;;;;17.71;85.58;101831.19;108261;1252;72410;-69
2023/09/26 03:04:48;;;;;;;13.70;12.30;;;;;;;17.71;85.49;101832.33;108228;1252;61713;-68
2023/09/26 03:07:15;;;;;;;15.20;11.70;;;;;;;17.70;85.34;101831.94;108133;1254;60876;-67
2023/09/26 03:09:42;;;;;;;15.00;12.50;;;;;;;17.68;85.36;101835.73;108350;1254;73583;-67
2023/09/26 03:12:09;;;;;;;13.50;12.00;;;;;;;17.71;85.29;101834.48;108146;1254;73227;-68
2023/09/26 03:14:36;;;;;;;13.80;11.90;;;;;;;17.73;85.17;101834.20;108203;1256;72645;-67
2023/09/26 03:17:05;;;;;;;13.00;11.50;;;;;;;17.75;85.21;101835.14;108209;1253;62001;-67
2023/09/26 03:19:32;;;;;;;12.90;11.60;;;;;;;17.73;84.98;101836.54;108112;1253;60402;-68
2023/09/26 03:21:59;;;;;;;13.30;11.60;;;;;;;17.69;84.85;101837.19;108157;1253;72297;-68
2023/09/26 03:24:26;;;;;;;13.90;12.40;;;;;;;17.68;84.80;101844.66;108223;1252;72741;-69
2023/09/26 03:26:53;;;;;;;12.90;11.60;;;;;;;17.65;84.83;101843.73;108211;1254;72462;-68
2023/09/26 03:29:20;;;;;;;14.90;11.40;;;;;;;17.65;84.79;101844.77;108247;1253;62010;-68
2023/09/26 03:31:48;;;;;;;13.30;11.20;;;;;;;17.65;84.78;101846.28;108156;1253;59009;-68
2023/09/26 03:34:15;;;;;;;12.00;10.60;;;;;;;17.64;84.80;101848.77;108454;1254;72302;-68
2023/09/26 03:36:41;;;;;;;12.40;10.90;;;;;;;17.63;84.76;101850.07;108268;1252;71744;-67
2023/09/26 03:39:09;;;;;;;12.70;11.30;;;;;;;17.63;84.54;101848.55;108335;1253;72607;-67
2023/09/26 03:41:35;;;;;;;11.60;10.40;;;;;;;17.65;84.64;101848.71;108165;1254;61848;-67
2023/09/26 03:44:03;;;;;;;12.60;11.00;;;;;;;17.67;84.58;101845.47;108256;1252;60299;-68
2023/09/26 03:46:30;;;;;;;12.40;11.10;;;;;;;17.70;84.60;101843.52;108416;1254;72707;-68
2023/09/26 03:48:57;;;;;;;13.60;10.20;;;;;;;17.71;84.50;101840.27;108143;1254;72586;-68
2023/09/26 03:51:24;;;;;;;14.30;12.00;;;;;;;17.71;84.47;101837.95;108219;1252;72639;-68
2023/09/26 03:53:51;;;;;;;12.10;10.80;;;;;;;17.72;84.38;101843.07;108802;1254;61858;-68
2023/09/26 03:56:18;;;;;;;12.50;11.00;;;;;;;17.73;84.26;101851.02;108374;1253;60321;-68
2023/09/26 03:58:45;;;;;;;12.80;11.30;;;;;;;17.73;84.15;101851.98;108281;1254;73916;-68
2023/09/26 04:01:13;;;;;;;12.60;11.20;;;;;;;17.76;84.16;101852.54;108332;1254;72406;-70
2023/09/26 04:03:42;;;;;;;15.00;11.90;;;;;;;17.78;84.09;101853.73;108285;1253;72668;-68
2023/09/26 04:06:09;;;;;;;13.70;11.90;;;;;;;17.80;84.01;101850.42;108237;1253;61996;-68
2023/09/26 04:08:36;;;;;;;13.40;11.80;;;;;;;17.83;83.98;101849.34;108237;1254;60433;-68
2023/09/26 04:11:03;;;;;;;14.30;12.10;;;;;;;17.83;83.99;101847.61;108158;1254;73680;-68
2023/09/26 04:13:30;;;;;;;13.40;11.60;;;;;;;17.83;83.83;101850.05;108253;1254;71210;-68
2023/09/26 04:15:57;;;;;;;13.60;12.20;;;;;;;17.85;83.79;101851.09;108234;1252;71019;-68
2023/09/26 04:18:26;;;;;;;15.20;11.90;;;;;;;17.85;83.70;101853.35;108336;1252;61312;-68
2023/09/26 04:20:53;;;;;;;14.90;12.90;;;;;;;17.85;83.71;101853.23;108287;1254;60335;-68
2023/09/26 04:23:20;;;;;;;13.70;11.90;;;;;;;17.88;83.49;101853.51;108322;1254;73582;-68
2023/09/26 04:25:47;;;;;;;15.90;12.40;;;;;;;17.90;83.43;101852.63;108341;1254;72661;-67
2023/09/26 04:28:14;;;;;;;15.10;13.40;;;;;;;17.91;83.41;101853.17;108245;1254;71272;-68
2023/09/26 04:30:41;;;;;;;14.40;12.00;;;;;;;17.93;83.13;101854.14;108314;1252;61766;-72
2023/09/26 04:33:08;;;;;;;15.30;11.90;;;;;;;17.96;83.13;101856.34;108290;1254;60552;-68
2023/09/26 04:35:35;;;;;;;13.70;12.00;;;;;;;17.97;83.05;101856.99;108267;1254;73484;-68
2023/09/26 04:38:03;;;;;;;12.80;11.40;;;;;;;17.98;83.11;101857.73;108319;1254;71622;-68
2023/09/26 04:40:30;;;;;;;14.70;12.60;;;;;;;18.01;82.98;101855.95;108431;1254;72774;-68
2023/09/26 04:43:02;;;;;;;15.70;12.60;;;;;;;18.04;83.03;101857.51;108436;1252;60446;-67
2023/09/26 04:45:32;;;;;;;14.50;11.40;;;;;;;18.05;82.82;101858.58;108323;1254;60294;-68
2023/09/26 04:48:00;;;;;;;14.30;12.20;;;;;;;18.05;82.48;101861.77;108379;1253;72662;-68
2023/09/26 04:50:27;;;;;;;16.00;12.70;;;;;;;18.07;82.52;101862.21;108291;1254;72492;-67
2023/09/26 04:52:54;;;;;;;16.20;12.60;;;;;;;18.10;82.60;101863.60;108256;1253;71329;-69
2023/09/26 04:55:21;;;;;;;17.20;12.90;;;;;;;18.14;82.57;101867.21;108174;1254;60520;-69
2023/09/26 04:57:48;;;;;;;15.70;12.40;;;;;;;18.20;82.50;101867.19;108194;1254;60294;-68
2023/09/26 05:00:19;;;;;;;14.60;12.20;;;;;;;18.25;82.40;101876.35;108239;1253;73538;-68
2023/09/26 05:02:50;;;;;;;15.80;12.00;;;;;;;18.28;82.26;101874.84;108159;1254;72777;-68
2023/09/26 05:05:17;;;;;;;15.20;13.00;;;;;;;18.31;82.09;101879.00;108249;1252;72483;-69
2023/09/26 05:07:44;;;;;;;16.50;12.90;;;;;;;18.32;81.89;101880.44;108220;1254;61930;-68
2023/09/26 05:10:12;;;;;;;15.80;12.70;;;;;;;18.32;81.75;101875.58;108393;1254;60396;-68
2023/09/26 05:12:40;;;;;;;14.90;12.20;;;;;;;18.35;81.61;101879.47;108469;1253;72618;-68
2023/09/26 05:15:12;;;;;;;15.70;12.30;;;;;;;18.37;81.64;101882.48;108420;1254;72664;-69
2023/09/26 05:17:49;;;;;;;;;;;;;;;18.40;81.45;101881.39;108352;1252;71145;-68
2023/09/26 05:20:16;;;;;;;16.70;12.20;;;;;;;18.46;81.45;101881.97;108218;1254;60484;-68
2023/09/26 05:22:49;;;;;;;15.60;12.60;;;;;;;18.52;81.42;101882.64;108270;1256;60524;-67
2023/09/26 05:25:16;;;;;;;14.30;12.00;;;;;;;18.60;81.37;101883.52;108301;1254;73743;-67
2023/09/26 05:27:44;;;;;;;15.40;12.50;;;;;;;18.64;80.97;101880.20;108207;1253;72499;-68
2023/09/26 05:30:14;;;;;;;15.00;13.20;;;;;;;18.65;80.81;101880.89;108371;1252;72663;-68
2023/09/26 05:32:41;;;;;;;13.90;11.40;;;;;;;18.69;80.60;101878.01;108399;1254;61797;-69
2023/09/26 05:35:08;;;;;;;14.20;11.70;;;;;;;18.69;80.34;101877.68;108316;1252;60527;-69
2023/09/26 05:37:36;;;;;;;13.10;11.40;;;;;;;18.71;80.01;101881.34;108396;1253;75086;-69
2023/09/26 05:40:06;;;;;;;13.90;12.40;;;;;;;18.72;79.79;101876.45;108354;1254;73047;-67
2023/09/26 05:42:34;;;;;;;17.00;13.90;;;;;;;18.77;79.90;101880.54;108258;1256;72473;-68
2023/09/26 05:45:11;;;;;;;14.70;12.80;;;;;;;18.82;79.62;101875.73;108268;1252;62055;-68
2023/09/26 05:47:38;;;;;;;14.30;12.10;;;;;;;18.88;79.55;101872.61;108203;1254;60461;-68
2023/09/26 05:50:06;;;;;;;14.70;12.30;;;;;;;18.92;79.27;101873.08;108409;1253;73645;-68
2023/09/26 05:52:33;;;;;;;15.60;12.20;;;;;;;18.89;78.79;101874.66;108443;1254;72850;-68
2023/09/26 05:55:00;;;;;;;14.70;12.60;;;;;;;18.86;78.54;101870.02;108238;1253;72944;-67
2023/09/26 05:57:27;;;;;;;15.50;12.60;;;;;;;18.84;78.60;101869.55;108363;1253;62355;-68
2023/09/26 05:59:54;;;;;;;14.60;11.90;;;;;;;18.84;78.52;101872.05;108260;1253;59595;-70
2023/09/26 06:02:21;;;;;;;15.30;12.80;;;;;;;18.81;78.17;101871.95;108281;1253;73777;-69
2023/09/26 06:04:48;;;;;;;15.20;12.00;;;;;;;18.80;78.21;101870.34;108297;1254;72692;-69
2023/09/26 06:07:17;;;;;;;15.70;12.10;;;;;;;18.77;78.38;101870.69;108342;1252;72709;-68
2023/09/26 06:09:44;;;;;;;17.30;13.00;;;;;;;18.83;78.46;101876.11;108297;1254;60579;-68
2023/09/26 06:12:27;;;;;;;15.00;11.60;;;;;;;18.95;78.50;101876.03;108237;1256;60371;-69
2023/09/26 06:14:55;;;;;;;13.80;12.40;;;;;;;19.07;78.27;101877.35;108141;1254;73664;-69
2023/09/26 07:48:25;;;;;;;14.30;12.90;;;;;;;20.46;71.09;101870.42;105538;1284;613555;-69
2023/09/26 07:50:53;;;;;;;16.70;14.00;;;;;;;21.02;68.32;101862.41;107127;1267;166617;-69
2023/09/26 07:53:21;;;;;;;15.20;12.50;;;;;;;21.14;67.65;101862.59;107321;1266;59057;-70
2023/09/26 07:55:48;;;;;;;15.20;11.90;;;;;;;21.24;66.92;101859.77;107306;1266;71062;-70
2023/09/26 07:58:16;;;;;;;18.40;14.50;;;;;;;21.30;66.27;101856.15;107250;1266;71456;-68
2023/09/26 08:00:44;;;;;;;15.20;12.50;;;;;;;21.38;65.99;101857.13;107249;1266;74728;-70
2023/09/26 08:03:12;;;;;;;13.20;11.80;;;;;;;21.50;65.16;101851.86;107225;1266;60430;-70
2023/09/26 08:05:40;;;;;;;12.40;10.80;;;;;;;21.58;64.13;101852.05;107378;1266;60061;-70
2023/09/26 08:08:08;;;;;;;13.90;11.80;;;;;;;21.57;63.74;101848.63;107258;1267;72721;-70
2023/09/26 08:10:37;;;;;;;13.70;12.00;;;;;;;21.62;64.03;101847.83;107301;1266;71841;-69
2023/09/26 08:13:05;;;;;;;12.90;10.50;;;;;;;21.79;64.11;101845.34;107293;1266;71891;-69
2023/09/26 08:15:34;;;;;;;12.40;10.50;;;;;;;21.95;63.25;101841.00;107197;1266;62778;-70
2023/09/26 08:18:02;;;;;;;14.50;12.40;;;;;;;22.09;62.84;101835.89;107303;1266;61329;-68
2023/09/26 08:20:31;;;;;;;15.00;11.50;;;;;;;22.25;62.35;101832.90;107126;1270;75096;-69
2023/09/26 08:22:59;;;;;;;12.90;11.50;;;;;;;22.36;61.36;101828.48;107107;1267;72702;-69
2023/09/26 08:25:26;;;;;;;14.60;11.80;;;;;;;22.45;60.81;101826.11;107263;1269;71183;-70
2023/09/26 08:27:55;;;;;;;11.50;10.30;;;;;;;22.55;60.22;101827.77;107163;1266;60663;-68
2023/09/26 08:30:23;;;;;;;12.30;10.70;;;;;;;22.63;59.09;101824.15;107375;1266;60440;-68
2023/09/26 08:32:50;;;;;;;13.50;10.30;;;;;;;22.65;58.61;101822.16;107282;1272;73114;-68
2023/09/26 08:35:18;;;;;;;12.10;10.30;;;;;;;22.65;58.27;101820.43;107831;1257;72945;-68
2023/09/26 08:37:47;;;;;;;12.00;10.70;;;;;;;22.66;58.23;101819.16;107807;1260;73021;-69
2023/09/26 08:40:14;;;;;;;11.90;10.70;;;;;;;22.76;58.39;101815.39;107625;1259;59818;-68
2023/09/26 08:42:45;;;;;;;12.50;10.60;;;;;;;22.92;58.31;101819.91;107666;1259;59620;-68
2023/09/26 08:45:13;;;;;;;12.70;11.40;;;;;;;23.05;57.58;101818.57;107813;1257;71825;-70
2023/09/26 08:47:43;;;;;;;13.30;10.60;;;;;;;23.09;57.24;101820.59;107693;1260;72115;-69
2023/09/26 08:50:11;;;;;;;13.50;10.90;;;;;;;23.18;56.95;101820.49;107687;1260;74944;-69
2023/09/26 08:52:39;;;;;;;11.60;10.10;;;;;;;23.24;56.41;101817.66;107662;1258;62313;-69
2023/09/26 08:55:08;;;;;;;13.20;11.30;;;;;;;23.27;55.73;101813.92;107681;1259;60191;-68
2023/09/26 08:57:37;;;;;;;11.40;9.90;;;;;;;23.31;55.40;101811.96;107716;1260;73044;-68
2023/09/26 09:00:05;;;;;;;11.40;10.10;;;;;;;23.33;55.11;101809.72;107671;1260;72690;-69
2023/09/26 09:02:33;;;;;;;10.90;9.60;;;;;;;23.42;55.54;101806.02;107639;1259;72648;-69
2023/09/26 09:05:00;;;;;;;13.40;10.90;;;;;;;23.52;55.21;101805.77;107813;1260;60231;-67
2023/09/26 09:07:28;;;;;;;13.70;10.60;;;;;;;23.61;54.81;101803.17;107754;1260;60854;-68
2023/09/26 09:10:03;;;;;;;13.20;11.60;;;;;;;23.72;54.53;101802.77;107746;1258;72169;-68
2023/09/26 09:12:31;;;;;;;14.10;11.50;;;;;;;23.82;54.01;101800.69;107773;1260;73008;-69
2023/09/26 09:14:58;;;;;;;14.20;11.00;;;;;;;23.92;54.01;101799.85;107700;1260;71741;-69
2023/09/26 09:17:26;;;;;;;11.70;10.50;;;;;;;24.03;53.61;101799.52;107714;1259;62661;-68
2023/09/26 09:19:54;;;;;;;12.00;10.10;;;;;;;24.14;53.14;101796.27;107575;1265;60552;-70
2023/09/26 09:22:23;;;;;;;10.70;9.50;;;;;;;24.22;53.14;101801.35;107770;1260;72078;-70
2023/09/26 09:24:54;;;;;;;13.10;9.10;;;;;;;24.33;53.29;101803.77;107705;1260;71603;-70
2023/09/26 09:27:34;;;;;;;11.10;10.00;;;;;;;24.43;52.49;101802.94;107807;1262;72796;-68
2023/09/26 09:30:07;;;;;;;12.50;9.70;;;;;;;24.49;51.91;101798.77;107810;1259;59917;-68
2023/09/26 09:32:35;;;;;;;13.10;10.00;;;;;;;24.50;51.30;101798.95;107888;1260;60023;-67
2023/09/26 09:35:04;;;;;;;11.30;9.80;;;;;;;24.42;50.95;101794.65;107830;1259;72517;-69
2023/09/26 09:37:31;;;;;;;14.30;9.90;;;;;;;24.34;50.99;101795.93;107766;1260;73019;-69
2023/09/26 09:40:05;;;;;;;10.00;8.70;;;;;;;24.30;51.36;101796.63;107729;1259;73333;-68
2023/09/26 09:42:57;;;;;;;12.40;9.20;;;;;;;24.36;51.80;101796.29;107627;1260;61821;-68
2023/09/26 09:45:25;;;;;;;13.20;9.50;;;;;;;24.49;51.87;101795.40;107725;1260;60132;-70
2023/09/26 09:47:52;;;;;;;12.90;9.50;;;;;;;24.61;51.13;101795.94;107689;1259;71425;-69
2023/09/26 09:50:20;;;;;;;13.00;10.10;;;;;;;24.71;50.86;101793.27;107625;1258;72878;-69
2023/09/26 09:52:49;;;;;;;10.50;8.80;;;;;;;24.79;50.22;101790.59;107575;1260;71473;-69
2023/09/26 09:55:20;;;;;;;10.50;9.40;;;;;;;24.80;49.83;101788.81;107548;1259;60252;-68
2023/09/26 09:57:50;;;;;;;12.80;9.20;;;;;;;24.77;49.84;101792.80;107587;1259;59634;-69
2023/09/26 10:00:19;;;;;;;12.40;9.20;;;;;;;24.80;48.73;101794.76;107841;1259;72262;-69
2023/09/26 10:02:47;;;;;;;15.60;9.40;;;;;;;24.88;48.73;101790.02;107775;1260;71536;-69
2023/09/26 10:05:15;;;;;;;11.40;9.00;;;;;;;24.98;48.66;101786.95;107658;1259;73143;-70
2023/09/26 10:07:42;;;;;;;12.30;9.30;;;;;;;24.98;48.51;101788.42;107741;1258;60123;-68
2023/09/26 10:10:11;;;;;;;12.20;9.90;;;;;;;24.96;48.70;101788.21;107640;1259;59654;-69
2023/09/26 10:12:39;;;;;;;12.40;9.00;;;;;;;25.03;48.69;101786.40;107625;1260;71638;-69
2023/09/26 10:15:22;;;;;;;13.20;9.50;;;;;;;25.17;48.05;101784.98;107741;1259;75085;-69
2023/09/26 10:17:55;;;;;;;11.70;8.90;;;;;;;25.31;47.80;101780.34;107571;1259;72359;-71
2023/09/26 10:20:24;;;;;;;11.90;9.20;;;;;;;25.44;47.63;101782.28;107543;1265;59659;-69
2023/09/26 10:23:10;;;;;;;11.90;9.50;;;;;;;25.58;47.76;101783.61;107634;1260;60458;-69
2023/09/26 10:25:37;;;;;;;12.60;9.30;;;;;;;25.69;47.39;101783.38;107704;1260;73076;-68
2023/09/26 10:28:07;;;;;;;10.90;9.50;;;;;;;25.77;47.01;101782.56;107677;1260;73788;-68
2023/09/26 10:30:43;;;;;;;11.40;8.60;;;;;;;25.85;46.58;101777.52;107716;1259;72503;-68
2023/09/26 10:33:12;;;;;;;12.80;8.80;;;;;;;25.95;46.62;101775.95;107714;1259;62114;-69
2023/09/26 10:36:04;;;;;;;10.00;8.30;;;;;;;25.99;46.30;101776.02;107679;1264;60137;-69
2023/09/26 10:38:33;;;;;;;10.90;8.50;;;;;;;25.91;45.99;101776.52;107771;1260;71778;-70
2023/09/26 10:41:01;;;;;;;11.10;8.50;;;;;;;25.78;46.01;101773.86;107723;1260;73075;-68
2023/09/26 10:43:28;;;;;;;10.00;7.60;;;;;;;25.69;46.10;101773.88;107707;1260;71097;-68
2023/09/26 10:46:12;;;;;;;13.50;9.30;;;;;;;25.72;46.27;101766.35;107702;1260;60418;-69
2023/09/26 10:48:40;;;;;;;10.80;9.20;;;;;;;25.81;46.45;101766.10;107750;1258;62437;-69
2023/09/26 10:51:08;;;;;;;12.10;8.70;;;;;;;25.92;46.70;101762.08;107757;1258;75201;-69
2023/09/26 10:53:36;;;;;;;10.10;8.00;;;;;;;26.00;45.97;101763.33;107757;1260;74785;-70
2023/09/26 10:56:04;;;;;;;10.00;7.90;;;;;;;26.03;45.43;101760.85;107728;1260;74939;-69
2023/09/26 10:58:32;;;;;;;9.50;7.60;;;;;;;26.04;44.42;101760.79;107660;1260;59967;-68
2023/09/26 11:01:00;;;;;;;11.60;7.60;;;;;;;25.98;44.44;101763.16;107814;1260;59003;-68
2023/09/26 11:03:28;;;;;;;10.80;7.70;;;;;;;25.90;44.11;101760.52;107701;1260;74616;-68
2023/09/26 11:05:57;;;;;;;11.30;7.50;;;;;;;25.79;43.99;101762.64;107760;1260;73047;-68
2023/09/26 11:08:26;;;;;;;12.90;8.40;;;;;;;25.66;44.03;101759.39;107744;1259;64124;-67
2023/09/26 11:10:54;;;;;;;11.80;8.00;;;;;;;25.54;44.62;101762.23;107556;1260;62485;-69
2023/09/26 11:13:25;;;;;;;11.80;7.90;;;;;;;25.54;44.59;101756.22;107672;1260;60337;-69
2023/09/26 11:15:53;;;;;;;9.30;7.50;;;;;;;25.62;44.69;101751.10;107798;1260;73115;-69
2023/09/26 11:18:21;;;;;;;10.10;7.30;;;;;;;25.73;44.96;101750.42;107725;1260;72106;-68
2023/09/26 11:20:49;;;;;;;11.20;7.40;;;;;;;25.85;44.80;101753.29;107748;1259;71270;-68
2023/09/26 11:23:35;;;;;;;9.80;7.50;;;;;;;25.97;44.57;101749.06;107792;1259;60136;-69
2023/09/26 12:05:43;;;;;;;9.80;7.50;;;;;;;26.44;44.55;101738.29;105794;1283;605206;-69
2023/09/26 12:08:12;;;;;;;13.20;8.20;;;;;;;27.26;42.54;101740.52;107526;1257;196684;-69
2023/09/26 12:10:40;;;;;;;10.20;7.20;;;;;;;27.22;42.38;101734.98;107770;1257;59412;-69
2023/09/26 12:13:10;;;;;;;10.90;7.30;;;;;;;27.15;42.47;101730.58;107704;1259;73270;-70
2023/09/26 12:15:38;;;;;;;11.00;7.10;;;;;;;27.12;42.83;101731.27;107828;1257;72853;-68
2023/09/26 12:18:06;;;;;;;12.00;7.80;;;;;;;27.13;42.57;101728.40;107772;1257;73027;-69
2023/09/26 12:20:34;;;;;;;9.90;7.20;;;;;;;27.10;42.83;101725.25;107719;1262;59349;-68
2023/09/26 12:23:02;;;;;;;14.00;8.00;;;;;;;27.09;42.72;101727.65;107743;1257;60233;-69
2023/09/26 12:25:30;;;;;;;9.10;6.70;;;;;;;27.05;42.92;101723.34;107766;1257;72414;-68
2023/09/26 12:27:58;;;;;;;9.30;6.80;;;;;;;27.02;43.09;101719.74;107842;1257;71594;-69
2023/09/26 12:30:25;;;;;;;9.70;7.30;;;;;;;27.04;42.89;101716.20;107710;1257;72734;-69
2023/09/26 12:32:53;;;;;;;9.40;7.20;;;;;;;27.11;42.81;101718.23;107788;1257;60695;-68
2023/09/26 12:35:21;;;;;;;8.60;7.10;;;;;;;27.12;42.28;101719.91;107699;1257;59631;-68
2023/09/26 12:37:48;;;;;;;9.90;7.50;;;;;;;27.05;42.17;101714.25;107903;1257;72010;-68
2023/09/26 12:40:16;;;;;;;8.80;7.30;;;;;;;26.92;42.21;101713.83;108096;1254;72845;-68
2023/09/26 12:42:44;;;;;;;11.20;7.60;;;;;;;26.86;42.73;101714.79;107906;1254;73278;-68
2023/09/26 12:45:12;;;;;;;10.40;7.20;;;;;;;26.83;43.07;101715.33;107868;1259;59401;-68
2023/09/26 12:47:39;;;;;;;15.80;7.60;;;;;;;26.78;42.82;101711.84;107936;1256;59567;-69
2023/09/26 12:50:10;;;;;;;12.30;7.40;;;;;;;26.76;43.12;101712.50;107835;1256;73816;-68
2023/09/26 12:52:39;;;;;;;13.60;8.30;;;;;;;26.83;43.32;101710.92;107974;1256;73202;-68
2023/09/26 12:55:08;;;;;;;10.80;8.10;;;;;;;26.83;43.46;101709.77;107979;1257;72779;-68
2023/09/26 12:57:37;;;;;;;9.80;7.20;;;;;;;26.84;43.61;101707.14;107783;1257;60989;-68
2023/09/26 13:00:10;;;;;;;10.60;7.10;;;;;;;26.87;43.20;101710.13;108073;1254;59997;-68
2023/09/26 13:02:39;;;;;;;10.80;6.60;;;;;;;26.83;43.05;101708.83;107921;1257;71857;-69
2023/09/26 13:05:08;;;;;;;12.30;7.90;;;;;;;26.78;43.17;101703.17;108047;1257;72985;-68
2023/09/26 13:07:37;;;;;;;12.70;7.60;;;;;;;26.76;43.52;101705.46;107888;1254;72825;-68
2023/09/26 13:10:06;;;;;;;10.20;7.20;;;;;;;26.75;43.62;101701.38;108082;1254;60127;-68
2023/09/26 13:12:35;;;;;;;10.10;7.20;;;;;;;26.76;43.64;101702.95;108120;1254;60040;-69
2023/09/26 13:15:03;;;;;;;12.80;7.50;;;;;;;26.73;43.60;101701.80;108009;1254;73459;-68
2023/09/26 13:17:31;;;;;;;12.80;8.20;;;;;;;26.68;43.68;101701.02;108013;1260;71647;-68
2023/09/26 15:51:19;;;;;;;37.50;27.60;;;;;;;23.41;54.07;101731.77;105590;1286;614132;-67